sensor_id;sensor_type;location;lat;lon;timestamp;pressure;altitude;pressure_sealevel;temperature
68911;BMP180;55953;51.650;-0.522;2023-03-31T00:01:12;98534.00;;;10.88
68911;BMP180;55953;51.650;-0.522;2023-03-31T00:03:40;98520.00;;;10.90
68911;BMP180;55953;51.650;-0.522;2023-03-31T00:06:12;98514.40;;;10.90
68911;BMP180;55953;51.650;-0.522;2023-03-31T00:08:46;98504.40;;;10.90
68911;BMP180;55953;51.650;-0.522;2023-03-31T00:11:21;98490.80;;;10.90
68911;BMP180;55953;51.650;-0.522;2023-03-31T00:13:49;98484.80;;;10.80
68911;BMP180;55953;51.650;-0.522;2023-03-31T00:16:17;98469.00;;;10.90
68911;BMP180;55953;51.650;-0.522;2023-03-31T00:18:46;98461.40;;;10.90
68911;BMP180;55953;51.650;-0.522;2023-03-31T00:21:18;98455.80;;;10.90
68911;BMP180;55953;51.650;-0.522;2023-03-31T00:24:01;98446.60;;;10.82
68911;BMP180;55953;51.650;-0.522;2023-03-31T00:26:30;98437.00;;;10.84
68911;BMP180;55953;51.650;-0.522;2023-03-31T00:28:58;98433.80;;;10.80
68911;BMP180;55953;51.650;-0.522;2023-03-31T00:31:27;98427.20;;;10.80
68911;BMP180;55953;51.650;-0.522;2023-03-31T00:33:56;98417.60;;;10.80
68911;BMP180;55953;51.650;-0.522;2023-03-31T00:36:25;98409.40;;;10.80
68911;BMP180;55953;51.650;-0.522;2023-03-31T00:39:00;98398.80;;;10.80
68911;BMP180;55953;51.650;-0.522;2023-03-31T00:41:29;98387.60;;;10.80
68911;BMP180;55953;51.650;-0.522;2023-03-31T00:44:18;98381.20;;;10.80
68911;BMP180;55953;51.650;-0.522;2023-03-31T00:47:05;98369.80;;;10.80
68911;BMP180;55953;51.650;-0.522;2023-03-31T00:49:46;98362.00;;;10.70
68911;BMP180;55953;51.650;-0.522;2023-03-31T00:52:22;98355.60;;;10.70
68911;BMP180;55953;51.650;-0.522;2023-03-31T00:55:04;98341.40;;;10.70
68911;BMP180;55953;51.650;-0.522;2023-03-31T00:57:37;98331.60;;;10.60
68911;BMP180;55953;51.650;-0.522;2023-03-31T01:00:11;98329.80;;;10.60
68911;BMP180;55953;51.650;-0.522;2023-03-31T01:02:46;98323.40;;;10.60
68911;BMP180;55953;51.650;-0.522;2023-03-31T01:05:42;98310.60;;;10.50
68911;BMP180;55953;51.650;-0.522;2023-03-31T01:08:15;98305.40;;;10.50
68911;BMP180;55953;51.650;-0.522;2023-03-31T01:10:50;98295.20;;;10.50
68911;BMP180;55953;51.650;-0.522;2023-03-31T01:13:22;98288.80;;;10.40
68911;BMP180;55953;51.650;-0.522;2023-03-31T01:15:52;98280.60;;;10.40
68911;BMP180;55953;51.650;-0.522;2023-03-31T01:18:20;98270.40;;;10.40
68911;BMP180;55953;51.650;-0.522;2023-03-31T01:24:37;98249.40;;;10.40
68911;BMP180;55953;51.650;-0.522;2023-03-31T01:41:18;98197.40;;;10.34
68911;BMP180;55953;51.650;-0.522;2023-03-31T01:46:34;98183.60;;;10.40
68911;BMP180;55953;51.650;-0.522;2023-03-31T01:49:43;98177.80;;;10.40
68911;BMP180;55953;51.650;-0.522;2023-03-31T01:53:17;98165.20;;;10.40
68911;BMP180;55953;51.650;-0.522;2023-03-31T01:56:10;98155.00;;;10.40
68911;BMP180;55953;51.650;-0.522;2023-03-31T01:59:08;98144.20;;;10.40
68911;BMP180;55953;51.650;-0.522;2023-03-31T02:01:50;98130.80;;;10.42
68911;BMP180;55953;51.650;-0.522;2023-03-31T02:04:29;98125.20;;;10.48
68911;BMP180;55953;51.650;-0.522;2023-03-31T02:07:04;98118.80;;;10.50
68911;BMP180;55953;51.650;-0.522;2023-03-31T02:09:40;98106.40;;;10.50
68911;BMP180;55953;51.650;-0.522;2023-03-31T02:12:11;98094.20;;;10.50
68911;BMP180;55953;51.650;-0.522;2023-03-31T02:14:44;98085.40;;;10.54
68911;BMP180;55953;51.650;-0.522;2023-03-31T02:17:21;98077.80;;;10.60
68911;BMP180;55953;51.650;-0.522;2023-03-31T02:20:03;98069.00;;;10.60
68911;BMP180;55953;51.650;-0.522;2023-03-31T02:22:37;98062.80;;;10.60
68911;BMP180;55953;51.650;-0.522;2023-03-31T02:25:11;98058.00;;;10.68
68911;BMP180;55953;51.650;-0.522;2023-03-31T02:27:45;98047.60;;;10.64
68911;BMP180;55953;51.650;-0.522;2023-03-31T02:30:14;98044.00;;;10.70
68911;BMP180;55953;51.650;-0.522;2023-03-31T02:32:44;98035.60;;;10.70
68911;BMP180;55953;51.650;-0.522;2023-03-31T02:35:16;98022.80;;;10.70
68911;BMP180;55953;51.650;-0.522;2023-03-31T02:37:45;98014.60;;;10.70
68911;BMP180;55953;51.650;-0.522;2023-03-31T02:40:20;98005.80;;;10.70
68911;BMP180;55953;51.650;-0.522;2023-03-31T02:42:49;97988.60;;;10.70
68911;BMP180;55953;51.650;-0.522;2023-03-31T02:45:46;97985.40;;;10.80
68911;BMP180;55953;51.650;-0.522;2023-03-31T02:48:20;97974.60;;;10.80
68911;BMP180;55953;51.650;-0.522;2023-03-31T02:57:22;97947.40;;;10.80
68911;BMP180;55953;51.650;-0.522;2023-03-31T03:05:50;97918.00;;;10.80
68911;BMP180;55953;51.650;-0.522;2023-03-31T03:14:54;97893.40;;;10.80
68911;BMP180;55953;51.650;-0.522;2023-03-31T03:17:46;97884.00;;;10.80
68911;BMP180;55953;51.650;-0.522;2023-03-31T03:20:19;97875.00;;;10.80
68911;BMP180;55953;51.650;-0.522;2023-03-31T03:22:47;97869.60;;;10.80
68911;BMP180;55953;51.650;-0.522;2023-03-31T03:25:15;97854.20;;;10.80
68911;BMP180;55953;51.650;-0.522;2023-03-31T03:27:47;97846.00;;;10.80
68911;BMP180;55953;51.650;-0.522;2023-03-31T03:30:15;97849.20;;;10.80
68911;BMP180;55953;51.650;-0.522;2023-03-31T03:32:43;97843.00;;;10.80
68911;BMP180;55953;51.650;-0.522;2023-03-31T03:35:11;97839.60;;;10.76
68911;BMP180;55953;51.650;-0.522;2023-03-31T03:37:39;97830.60;;;10.80
68911;BMP180;55953;51.650;-0.522;2023-03-31T03:40:08;97821.80;;;10.80
68911;BMP180;55953;51.650;-0.522;2023-03-31T03:42:37;97815.60;;;10.72
68911;BMP180;55953;51.650;-0.522;2023-03-31T03:45:05;97808.00;;;10.74
68911;BMP180;55953;51.650;-0.522;2023-03-31T03:47:34;97802.00;;;10.72
68911;BMP180;55953;51.650;-0.522;2023-03-31T03:50:04;97800.20;;;10.70
68911;BMP180;55953;51.650;-0.522;2023-03-31T03:52:32;97791.80;;;10.70
68911;BMP180;55953;51.650;-0.522;2023-03-31T03:55:00;97781.60;;;10.70
68911;BMP180;55953;51.650;-0.522;2023-03-31T03:57:28;97765.40;;;10.70
68911;BMP180;55953;51.650;-0.522;2023-03-31T03:59:56;97770.20;;;10.70
68911;BMP180;55953;51.650;-0.522;2023-03-31T04:02:24;97761.40;;;10.70
68911;BMP180;55953;51.650;-0.522;2023-03-31T04:04:55;97752.40;;;10.70
68911;BMP180;55953;51.650;-0.522;2023-03-31T04:07:23;97747.60;;;10.70
68911;BMP180;55953;51.650;-0.522;2023-03-31T04:09:51;97748.00;;;10.60
68911;BMP180;55953;51.650;-0.522;2023-03-31T04:12:18;97741.80;;;10.60
68911;BMP180;55953;51.650;-0.522;2023-03-31T04:14:46;97737.00;;;10.60
68911;BMP180;55953;51.650;-0.522;2023-03-31T04:17:14;97728.60;;;10.60
68911;BMP180;55953;51.650;-0.522;2023-03-31T04:19:42;97729.20;;;10.60
68911;BMP180;55953;51.650;-0.522;2023-03-31T04:22:10;97721.20;;;10.60
68911;BMP180;55953;51.650;-0.522;2023-03-31T04:24:41;97721.60;;;10.60
68911;BMP180;55953;51.650;-0.522;2023-03-31T04:27:12;97718.80;;;10.60
68911;BMP180;55953;51.650;-0.522;2023-03-31T04:29:43;97708.80;;;10.60
68911;BMP180;55953;51.650;-0.522;2023-03-31T04:32:14;97702.80;;;10.60
68911;BMP180;55953;51.650;-0.522;2023-03-31T04:34:48;97697.20;;;10.50
68911;BMP180;55953;51.650;-0.522;2023-03-31T04:37:29;97686.40;;;10.50
68911;BMP180;55953;51.650;-0.522;2023-03-31T04:40:01;97681.80;;;10.50
68911;BMP180;55953;51.650;-0.522;2023-03-31T04:42:36;97677.60;;;10.50
68911;BMP180;55953;51.650;-0.522;2023-03-31T04:45:04;97670.20;;;10.50
68911;BMP180;55953;51.650;-0.522;2023-03-31T04:47:32;97672.60;;;10.50
68911;BMP180;55953;51.650;-0.522;2023-03-31T04:50:00;97667.40;;;10.50
68911;BMP180;55953;51.650;-0.522;2023-03-31T04:52:28;97665.20;;;10.50
68911;BMP180;55953;51.650;-0.522;2023-03-31T04:54:56;97653.40;;;10.50
68911;BMP180;55953;51.650;-0.522;2023-03-31T04:57:24;97649.80;;;10.50
68911;BMP180;55953;51.650;-0.522;2023-03-31T04:59:52;97645.00;;;10.50
68911;BMP180;55953;51.650;-0.522;2023-03-31T05:02:20;97635.80;;;10.50
68911;BMP180;55953;51.650;-0.522;2023-03-31T05:04:52;97630.80;;;10.50
68911;BMP180;55953;51.650;-0.522;2023-03-31T05:07:20;97627.00;;;10.50
68911;BMP180;55953;51.650;-0.522;2023-03-31T05:09:47;97629.80;;;10.50
68911;BMP180;55953;51.650;-0.522;2023-03-31T05:12:15;97616.00;;;10.50
68911;BMP180;55953;51.650;-0.522;2023-03-31T05:14:43;97614.80;;;10.50
68911;BMP180;55953;51.650;-0.522;2023-03-31T05:17:11;97608.00;;;10.50
68911;BMP180;55953;51.650;-0.522;2023-03-31T05:19:39;97613.00;;;10.50
68911;BMP180;55953;51.650;-0.522;2023-03-31T05:22:07;97608.80;;;10.50
68911;BMP180;55953;51.650;-0.522;2023-03-31T05:24:35;97594.80;;;10.50
68911;BMP180;55953;51.650;-0.522;2023-03-31T05:27:03;97589.80;;;10.50
68911;BMP180;55953;51.650;-0.522;2023-03-31T05:29:30;97589.60;;;10.50
68911;BMP180;55953;51.650;-0.522;2023-03-31T05:31:58;97587.80;;;10.50
68911;BMP180;55953;51.650;-0.522;2023-03-31T05:34:26;97587.00;;;10.50
68911;BMP180;55953;51.650;-0.522;2023-03-31T05:36:54;97581.20;;;10.50
68911;BMP180;55953;51.650;-0.522;2023-03-31T05:39:22;97585.00;;;10.50
68911;BMP180;55953;51.650;-0.522;2023-03-31T05:41:50;97580.40;;;10.50
68911;BMP180;55953;51.650;-0.522;2023-03-31T05:44:18;97580.20;;;10.50
68911;BMP180;55953;51.650;-0.522;2023-03-31T05:46:47;97576.80;;;10.50
68911;BMP180;55953;51.650;-0.522;2023-03-31T05:49:15;97574.00;;;10.50
68911;BMP180;55953;51.650;-0.522;2023-03-31T05:51:44;97572.80;;;10.50
68911;BMP180;55953;51.650;-0.522;2023-03-31T05:54:12;97566.80;;;10.50
68911;BMP180;55953;51.650;-0.522;2023-03-31T05:56:40;97563.60;;;10.50
68911;BMP180;55953;51.650;-0.522;2023-03-31T05:59:08;97566.40;;;10.50
68911;BMP180;55953;51.650;-0.522;2023-03-31T06:01:36;97561.40;;;10.50
68911;BMP180;55953;51.650;-0.522;2023-03-31T06:04:04;97560.40;;;10.50
68911;BMP180;55953;51.650;-0.522;2023-03-31T06:06:32;97554.40;;;10.50
68911;BMP180;55953;51.650;-0.522;2023-03-31T06:09:05;97563.20;;;10.54
68911;BMP180;55953;51.650;-0.522;2023-03-31T06:11:33;97560.40;;;10.52
68911;BMP180;55953;51.650;-0.522;2023-03-31T06:14:01;97557.80;;;10.50
68911;BMP180;55953;51.650;-0.522;2023-03-31T06:16:29;97549.60;;;10.52
68911;BMP180;55953;51.650;-0.522;2023-03-31T06:18:57;97555.80;;;10.54
68911;BMP180;55953;51.650;-0.522;2023-03-31T06:21:25;97548.40;;;10.56
68911;BMP180;55953;51.650;-0.522;2023-03-31T06:23:52;97549.80;;;10.58
68911;BMP180;55953;51.650;-0.522;2023-03-31T06:26:22;97550.20;;;10.60
68911;BMP180;55953;51.650;-0.522;2023-03-31T06:28:50;97552.60;;;10.60
68911;BMP180;55953;51.650;-0.522;2023-03-31T06:31:22;97550.20;;;10.60
68911;BMP180;55953;51.650;-0.522;2023-03-31T06:33:51;97543.60;;;10.60
68911;BMP180;55953;51.650;-0.522;2023-03-31T06:36:21;97547.60;;;10.60
68911;BMP180;55953;51.650;-0.522;2023-03-31T06:38:49;97543.00;;;10.64
68911;BMP180;55953;51.650;-0.522;2023-03-31T06:41:18;97540.60;;;10.70
68911;BMP180;55953;51.650;-0.522;2023-03-31T06:43:48;97542.40;;;10.70
68911;BMP180;55953;51.650;-0.522;2023-03-31T06:46:17;97532.80;;;10.70
68911;BMP180;55953;51.650;-0.522;2023-03-31T06:48:45;97538.40;;;10.80
68911;BMP180;55953;51.650;-0.522;2023-03-31T06:51:14;97537.80;;;10.80
68911;BMP180;55953;51.650;-0.522;2023-03-31T06:53:42;97534.80;;;10.84
68911;BMP180;55953;51.650;-0.522;2023-03-31T06:56:10;97531.40;;;10.90
68911;BMP180;55953;51.650;-0.522;2023-03-31T06:58:38;97532.00;;;10.90
68911;BMP180;55953;51.650;-0.522;2023-03-31T07:01:06;97530.60;;;10.94
68911;BMP180;55953;51.650;-0.522;2023-03-31T07:03:34;97529.80;;;10.98
68911;BMP180;55953;51.650;-0.522;2023-03-31T07:06:03;97521.80;;;11.00
68911;BMP180;55953;51.650;-0.522;2023-03-31T07:08:31;97526.80;;;11.00
68911;BMP180;55953;51.650;-0.522;2023-03-31T07:10:59;97524.60;;;11.06
68911;BMP180;55953;51.650;-0.522;2023-03-31T07:13:28;97524.20;;;11.10
68911;BMP180;55953;51.650;-0.522;2023-03-31T07:15:56;97521.60;;;11.20
68911;BMP180;55953;51.650;-0.522;2023-03-31T07:18:24;97525.00;;;11.20
68911;BMP180;55953;51.650;-0.522;2023-03-31T07:20:53;97520.80;;;11.30
68911;BMP180;55953;51.650;-0.522;2023-03-31T07:23:21;97517.20;;;11.32
68911;BMP180;55953;51.650;-0.522;2023-03-31T07:25:48;97521.20;;;11.36
68911;BMP180;55953;51.650;-0.522;2023-03-31T07:28:16;97519.60;;;11.30
68911;BMP180;55953;51.650;-0.522;2023-03-31T07:30:44;97520.40;;;11.30
68911;BMP180;55953;51.650;-0.522;2023-03-31T07:33:12;97506.00;;;11.30
68911;BMP180;55953;51.650;-0.522;2023-03-31T07:35:40;97512.40;;;11.30
68911;BMP180;55953;51.650;-0.522;2023-03-31T07:38:09;97507.60;;;11.30
68911;BMP180;55953;51.650;-0.522;2023-03-31T07:40:39;97510.80;;;11.30
68911;BMP180;55953;51.650;-0.522;2023-03-31T07:43:08;97507.00;;;11.30
68911;BMP180;55953;51.650;-0.522;2023-03-31T07:45:38;97508.20;;;11.30
68911;BMP180;55953;51.650;-0.522;2023-03-31T07:48:06;97508.20;;;11.40
68911;BMP180;55953;51.650;-0.522;2023-03-31T07:50:34;97507.20;;;11.34
68911;BMP180;55953;51.650;-0.522;2023-03-31T07:53:09;97498.40;;;11.38
68911;BMP180;55953;51.650;-0.522;2023-03-31T07:55:37;97502.60;;;11.30
68911;BMP180;55953;51.650;-0.522;2023-03-31T07:58:05;97502.20;;;11.30
68911;BMP180;55953;51.650;-0.522;2023-03-31T08:00:33;97502.40;;;11.30
68911;BMP180;55953;51.650;-0.522;2023-03-31T08:03:01;97498.20;;;11.30
68911;BMP180;55953;51.650;-0.522;2023-03-31T08:05:29;97496.60;;;11.30
68911;BMP180;55953;51.650;-0.522;2023-03-31T08:07:57;97494.40;;;11.30
68911;BMP180;55953;51.650;-0.522;2023-03-31T08:10:26;97493.80;;;11.30
68911;BMP180;55953;51.650;-0.522;2023-03-31T08:12:54;97494.40;;;11.34
68911;BMP180;55953;51.650;-0.522;2023-03-31T08:15:22;97496.80;;;11.30
68911;BMP180;55953;51.650;-0.522;2023-03-31T08:17:51;97496.80;;;11.40
68911;BMP180;55953;51.650;-0.522;2023-03-31T08:20:19;97492.60;;;11.34
68911;BMP180;55953;51.650;-0.522;2023-03-31T08:22:47;97494.20;;;11.40
68911;BMP180;55953;51.650;-0.522;2023-03-31T08:25:15;97495.00;;;11.40
68911;BMP180;55953;51.650;-0.522;2023-03-31T08:27:43;97488.00;;;11.50
68911;BMP180;55953;51.650;-0.522;2023-03-31T08:30:11;97482.40;;;11.50
68911;BMP180;55953;51.650;-0.522;2023-03-31T08:32:39;97484.40;;;11.60
68911;BMP180;55953;51.650;-0.522;2023-03-31T08:35:08;97483.00;;;11.60
68911;BMP180;55953;51.650;-0.522;2023-03-31T08:37:37;97483.80;;;11.60
68911;BMP180;55953;51.650;-0.522;2023-03-31T08:40:06;97478.20;;;11.56
68911;BMP180;55953;51.650;-0.522;2023-03-31T08:42:50;97474.00;;;11.52
68911;BMP180;55953;51.650;-0.522;2023-03-31T08:45:33;97471.60;;;11.52
68911;BMP180;55953;51.650;-0.522;2023-03-31T08:48:36;97469.20;;;11.60
68911;BMP180;55953;51.650;-0.522;2023-03-31T08:51:16;97463.80;;;11.60
68911;BMP180;55953;51.650;-0.522;2023-03-31T08:54:00;97465.40;;;11.60
68911;BMP180;55953;51.650;-0.522;2023-03-31T08:56:41;97464.00;;;11.58
68911;BMP180;55953;51.650;-0.522;2023-03-31T08:59:27;97465.20;;;11.50
68911;BMP180;55953;51.650;-0.522;2023-03-31T09:08:06;97465.60;;;11.62
68911;BMP180;55953;51.650;-0.522;2023-03-31T09:14:25;97458.40;;;11.70
68911;BMP180;55953;51.650;-0.522;2023-03-31T09:17:22;97452.20;;;11.70
68911;BMP180;55953;51.650;-0.522;2023-03-31T09:22:44;97447.00;;;11.70
68911;BMP180;55953;51.650;-0.522;2023-03-31T09:25:25;97448.20;;;11.80
68911;BMP180;55953;51.650;-0.522;2023-03-31T09:27:58;97444.20;;;11.80
68911;BMP180;55953;51.650;-0.522;2023-03-31T09:30:30;97442.40;;;11.90
68911;BMP180;55953;51.650;-0.522;2023-03-31T09:33:29;97446.40;;;11.90
68911;BMP180;55953;51.650;-0.522;2023-03-31T09:36:01;97441.00;;;11.92
68911;BMP180;55953;51.650;-0.522;2023-03-31T09:38:33;97434.80;;;11.90
68911;BMP180;55953;51.650;-0.522;2023-03-31T09:41:02;97434.60;;;11.80
68911;BMP180;55953;51.650;-0.522;2023-03-31T09:43:32;97430.40;;;11.70
68911;BMP180;55953;51.650;-0.522;2023-03-31T09:46:30;97432.40;;;11.70
68911;BMP180;55953;51.650;-0.522;2023-03-31T09:49:05;97427.60;;;11.70
68911;BMP180;55953;51.650;-0.522;2023-03-31T09:51:35;97427.80;;;11.70
68911;BMP180;55953;51.650;-0.522;2023-03-31T09:54:43;97426.20;;;11.76
68911;BMP180;55953;51.650;-0.522;2023-03-31T09:57:27;97421.00;;;11.80
68911;BMP180;55953;51.650;-0.522;2023-03-31T10:00:16;97418.80;;;11.86
68911;BMP180;55953;51.650;-0.522;2023-03-31T10:02:53;97418.80;;;11.90
68911;BMP180;55953;51.650;-0.522;2023-03-31T10:05:36;97422.60;;;11.90
68911;BMP180;55953;51.650;-0.522;2023-03-31T10:10:48;97436.60;;;11.90
68911;BMP180;55953;51.650;-0.522;2023-03-31T10:13:22;97441.00;;;11.90
68911;BMP180;55953;51.650;-0.522;2023-03-31T10:16:02;97444.00;;;11.82
68911;BMP180;55953;51.650;-0.522;2023-03-31T10:18:37;97452.20;;;11.80
68911;BMP180;55953;51.650;-0.522;2023-03-31T10:21:19;97455.80;;;11.80
68911;BMP180;55953;51.650;-0.522;2023-03-31T10:23:49;97458.60;;;11.80
68911;BMP180;55953;51.650;-0.522;2023-03-31T10:26:22;97461.60;;;11.80
68911;BMP180;55953;51.650;-0.522;2023-03-31T10:28:53;97473.40;;;11.80
68911;BMP180;55953;51.650;-0.522;2023-03-31T10:31:34;97478.60;;;11.80
68911;BMP180;55953;51.650;-0.522;2023-03-31T10:34:07;97480.00;;;11.80
68911;BMP180;55953;51.650;-0.522;2023-03-31T10:36:36;97484.60;;;11.80
68911;BMP180;55953;51.650;-0.522;2023-03-31T10:39:06;97483.80;;;11.90
68911;BMP180;55953;51.650;-0.522;2023-03-31T10:41:34;97488.80;;;12.10
68911;BMP180;55953;51.650;-0.522;2023-03-31T10:44:03;97486.60;;;12.30
68911;BMP180;55953;51.650;-0.522;2023-03-31T10:49:43;97499.60;;;12.80
68911;BMP180;55953;51.650;-0.522;2023-03-31T10:52:25;97500.80;;;13.00
68911;BMP180;55953;51.650;-0.522;2023-03-31T10:54:58;97513.20;;;13.12
68911;BMP180;55953;51.650;-0.522;2023-03-31T10:57:56;97518.80;;;13.30
68911;BMP180;55953;51.650;-0.522;2023-03-31T11:00:37;97520.40;;;13.50
68911;BMP180;55953;51.650;-0.522;2023-03-31T11:03:37;97530.00;;;13.80
68911;BMP180;55953;51.650;-0.522;2023-03-31T11:12:11;97537.00;;;14.40
68911;BMP180;55953;51.650;-0.522;2023-03-31T11:15:08;97544.60;;;14.30
68911;BMP180;55953;51.650;-0.522;2023-03-31T11:23:40;97550.40;;;14.10
68911;BMP180;55953;51.650;-0.522;2023-03-31T11:32:28;97565.20;;;14.20
68911;BMP180;55953;51.650;-0.522;2023-03-31T11:38:45;97579.40;;;13.70
68911;BMP180;55953;51.650;-0.522;2023-03-31T11:41:20;97595.20;;;13.44
68911;BMP180;55953;51.650;-0.522;2023-03-31T11:43:54;97603.00;;;13.20
68911;BMP180;55953;51.650;-0.522;2023-03-31T11:49:28;97619.60;;;12.70
68911;BMP180;55953;51.650;-0.522;2023-03-31T11:52:08;97625.80;;;12.70
68911;BMP180;55953;51.650;-0.522;2023-03-31T11:55:02;97635.60;;;12.96
68911;BMP180;55953;51.650;-0.522;2023-03-31T11:57:39;97631.20;;;13.20
68911;BMP180;55953;51.650;-0.522;2023-03-31T12:00:19;97638.00;;;13.40
68911;BMP180;55953;51.650;-0.522;2023-03-31T12:03:36;97638.40;;;13.42
68911;BMP180;55953;51.650;-0.522;2023-03-31T12:06:12;97652.00;;;13.48
68911;BMP180;55953;51.650;-0.522;2023-03-31T12:09:02;97658.20;;;13.64
68911;BMP180;55953;51.650;-0.522;2023-03-31T12:12:04;97659.40;;;13.86
68911;BMP180;55953;51.650;-0.522;2023-03-31T12:14:40;97662.20;;;13.90
68911;BMP180;55953;51.650;-0.522;2023-03-31T12:17:14;97661.20;;;13.90
68911;BMP180;55953;51.650;-0.522;2023-03-31T12:19:49;97671.80;;;14.00
68911;BMP180;55953;51.650;-0.522;2023-03-31T12:22:25;97669.40;;;14.00
68911;BMP180;55953;51.650;-0.522;2023-03-31T12:24:54;97673.60;;;13.82
68911;BMP180;55953;51.650;-0.522;2023-03-31T12:27:39;97678.80;;;13.70
68911;BMP180;55953;51.650;-0.522;2023-03-31T12:30:16;97679.20;;;13.60
68911;BMP180;55953;51.650;-0.522;2023-03-31T12:32:55;97683.20;;;13.60
68911;BMP180;55953;51.650;-0.522;2023-03-31T12:46:43;97700.00;;;13.80
68911;BMP180;55953;51.650;-0.522;2023-03-31T12:50:08;97709.20;;;13.82
68911;BMP180;55953;51.650;-0.522;2023-03-31T12:52:59;97707.20;;;13.80
68911;BMP180;55953;51.650;-0.522;2023-03-31T12:55:36;97711.60;;;13.90
68911;BMP180;55953;51.650;-0.522;2023-03-31T13:06:03;97728.00;;;14.00
68911;BMP180;55953;51.650;-0.522;2023-03-31T13:09:05;97735.00;;;13.92
68911;BMP180;55953;51.650;-0.522;2023-03-31T13:11:39;97744.80;;;13.68
68911;BMP180;55953;51.650;-0.522;2023-03-31T13:14:22;97752.00;;;13.50
68911;BMP180;55953;51.650;-0.522;2023-03-31T13:16:53;97749.60;;;13.50
68911;BMP180;55953;51.650;-0.522;2023-03-31T13:19:40;97755.60;;;13.50
68911;BMP180;55953;51.650;-0.522;2023-03-31T13:22:30;97758.80;;;13.50
68911;BMP180;55953;51.650;-0.522;2023-03-31T13:31:05;97796.60;;;13.10
68911;BMP180;55953;51.650;-0.522;2023-03-31T13:33:55;97796.20;;;13.10
68911;BMP180;55953;51.650;-0.522;2023-03-31T13:36:48;97808.40;;;13.00
68911;BMP180;55953;51.650;-0.522;2023-03-31T13:40:02;97815.60;;;12.92
68911;BMP180;55953;51.650;-0.522;2023-03-31T13:45:49;97833.40;;;12.70
68911;BMP180;55953;51.650;-0.522;2023-03-31T13:48:50;97838.60;;;12.70
68911;BMP180;55953;51.650;-0.522;2023-03-31T13:51:34;97842.40;;;12.82
68911;BMP180;55953;51.650;-0.522;2023-03-31T14:03:12;97862.60;;;13.00
68911;BMP180;55953;51.650;-0.522;2023-03-31T14:06:09;97873.80;;;13.00
68911;BMP180;55953;51.650;-0.522;2023-03-31T14:08:52;97874.00;;;13.00
68911;BMP180;55953;51.650;-0.522;2023-03-31T14:11:30;97876.20;;;13.00
68911;BMP180;55953;51.650;-0.522;2023-03-31T14:16:28;97885.00;;;13.10
68911;BMP180;55953;51.650;-0.522;2023-03-31T14:22:43;97895.80;;;13.30
68911;BMP180;55953;51.650;-0.522;2023-03-31T14:31:52;97907.60;;;13.20
68911;BMP180;55953;51.650;-0.522;2023-03-31T14:34:38;97913.40;;;13.30
68911;BMP180;55953;51.650;-0.522;2023-03-31T14:37:13;97923.00;;;13.40
68911;BMP180;55953;51.650;-0.522;2023-03-31T14:39:51;97914.80;;;13.52
68911;BMP180;55953;51.650;-0.522;2023-03-31T14:42:26;97925.40;;;13.60
68911;BMP180;55953;51.650;-0.522;2023-03-31T14:45:02;97922.80;;;13.50
68911;BMP180;55953;51.650;-0.522;2023-03-31T14:47:30;97930.60;;;13.40
68911;BMP180;55953;51.650;-0.522;2023-03-31T14:50:17;97931.60;;;13.20
68911;BMP180;55953;51.650;-0.522;2023-03-31T14:52:50;97935.20;;;13.16
68911;BMP180;55953;51.650;-0.522;2023-03-31T14:55:24;97949.40;;;13.10
68911;BMP180;55953;51.650;-0.522;2023-03-31T14:58:02;97949.60;;;13.20
68911;BMP180;55953;51.650;-0.522;2023-03-31T15:00:32;97947.40;;;13.28
68911;BMP180;55953;51.650;-0.522;2023-03-31T15:03:05;97950.60;;;13.40
68911;BMP180;55953;51.650;-0.522;2023-03-31T15:05:37;97950.40;;;13.50
68911;BMP180;55953;51.650;-0.522;2023-03-31T15:08:13;97945.60;;;13.42
68911;BMP180;55953;51.650;-0.522;2023-03-31T15:10:54;97959.00;;;13.32
68911;BMP180;55953;51.650;-0.522;2023-03-31T15:13:43;97957.20;;;13.20
68911;BMP180;55953;51.650;-0.522;2023-03-31T15:16:35;97962.80;;;13.18
68911;BMP180;55953;51.650;-0.522;2023-03-31T15:21:55;97971.00;;;13.26
68911;BMP180;55953;51.650;-0.522;2023-03-31T15:24:23;97978.00;;;13.20
68911;BMP180;55953;51.650;-0.522;2023-03-31T15:27:04;97988.60;;;13.22
68911;BMP180;55953;51.650;-0.522;2023-03-31T15:29:48;97984.80;;;13.10
68911;BMP180;55953;51.650;-0.522;2023-03-31T15:32:33;97988.40;;;13.02
68911;BMP180;55953;51.650;-0.522;2023-03-31T15:35:04;97992.40;;;13.00
68911;BMP180;55953;51.650;-0.522;2023-03-31T15:37:40;98002.40;;;13.00
68911;BMP180;55953;51.650;-0.522;2023-03-31T15:43:05;98015.20;;;13.00
68911;BMP180;55953;51.650;-0.522;2023-03-31T15:45:58;98014.20;;;13.10
68911;BMP180;55953;51.650;-0.522;2023-03-31T15:48:35;98027.20;;;13.10
68911;BMP180;55953;51.650;-0.522;2023-03-31T15:51:13;98025.00;;;13.10
68911;BMP180;55953;51.650;-0.522;2023-03-31T15:53:47;98034.40;;;13.10
68911;BMP180;55953;51.650;-0.522;2023-03-31T15:56:29;98048.00;;;13.00
68911;BMP180;55953;51.650;-0.522;2023-03-31T15:59:24;98049.00;;;12.88
68911;BMP180;55953;51.650;-0.522;2023-03-31T16:02:14;98053.60;;;12.80
68911;BMP180;55953;51.650;-0.522;2023-03-31T16:04:48;98059.60;;;12.70
68911;BMP180;55953;51.650;-0.522;2023-03-31T16:07:25;98068.80;;;12.60
68911;BMP180;55953;51.650;-0.522;2023-03-31T16:10:02;98079.00;;;12.60
68911;BMP180;55953;51.650;-0.522;2023-03-31T16:12:40;98085.80;;;12.54
68911;BMP180;55953;51.650;-0.522;2023-03-31T16:15:22;98092.00;;;12.50
68911;BMP180;55953;51.650;-0.522;2023-03-31T16:18:11;98094.20;;;12.40
68911;BMP180;55953;51.650;-0.522;2023-03-31T16:20:50;98094.00;;;12.40
68911;BMP180;55953;51.650;-0.522;2023-03-31T16:23:24;98106.20;;;12.40
68911;BMP180;55953;51.650;-0.522;2023-03-31T16:25:54;98111.00;;;12.30
68911;BMP180;55953;51.650;-0.522;2023-03-31T16:28:27;98119.60;;;12.30
68911;BMP180;55953;51.650;-0.522;2023-03-31T16:30:55;98120.40;;;12.30
68911;BMP180;55953;51.650;-0.522;2023-03-31T16:33:30;98124.80;;;12.20
68911;BMP180;55953;51.650;-0.522;2023-03-31T16:36:01;98121.00;;;12.20
68911;BMP180;55953;51.650;-0.522;2023-03-31T16:38:29;98129.60;;;12.20
68911;BMP180;55953;51.650;-0.522;2023-03-31T16:40:58;98135.40;;;12.10
68911;BMP180;55953;51.650;-0.522;2023-03-31T16:43:29;98135.00;;;12.10
68911;BMP180;55953;51.650;-0.522;2023-03-31T16:46:02;98140.00;;;12.00
68911;BMP180;55953;51.650;-0.522;2023-03-31T16:48:31;98145.80;;;12.00
68911;BMP180;55953;51.650;-0.522;2023-03-31T16:51:02;98156.80;;;12.08
68911;BMP180;55953;51.650;-0.522;2023-03-31T16:53:33;98156.00;;;12.00
68911;BMP180;55953;51.650;-0.522;2023-03-31T16:56:05;98162.40;;;12.08
68911;BMP180;55953;51.650;-0.522;2023-03-31T16:58:37;98158.40;;;12.02